Time;durP1;ratioP1;P1;durP2;ratioP2;P2;SDS_P1;SDS_P2;PMS_P1;PMS_P2;Temp;Humidity;BMP_temperature;BMP_pressure;BME280_temperature;BME280_humidity;BME280_pressure;Samples;Min_cycle;Max_cycle;Signal;HPM_P1;HPM_P2
2021/12/01 00:01:13;;;;;;;8.77;5.80;;;6.10;99.90;;;;;;4991340;28;20209;-45
2021/12/01 00:03:41;;;;;;;10.17;5.17;;;6.10;99.90;;;;;;4998737;28;20679;-44
2021/12/01 00:06:10;;;;;;;10.67;5.60;;;6.10;99.90;;;;;;4997757;28;20218;-45
2021/12/01 00:08:38;;;;;;;12.47;5.47;;;6.10;99.90;;;;;;4993468;28;20214;-45
2021/12/01 00:11:05;;;;;;;12.30;5.80;;;6.10;99.90;;;;;;4996411;28;20209;-45
2021/12/01 00:13:33;;;;;;;9.87;5.50;;;6.10;99.90;;;;;;4986476;28;21401;-45
2021/12/01 00:16:00;;;;;;;11.47;5.37;;;6.20;99.90;;;;;;5004222;28;20967;-44
2021/12/01 00:18:28;;;;;;;13.53;5.83;;;6.20;99.90;;;;;;5003496;28;20208;-44
2021/12/01 00:20:55;;;;;;;10.77;6.17;;;6.20;99.90;;;;;;5006803;28;20209;-44
2021/12/01 00:23:22;;;;;;;9.00;5.97;;;6.20;99.90;;;;;;4990632;28;21742;-45
2021/12/01 00:25:50;;;;;;;10.87;5.60;;;6.20;99.90;;;;;;5013329;28;20198;-45
2021/12/01 00:28:17;;;;;;;10.97;6.10;;;6.20;99.90;;;;;;4974619;28;20244;-45
2021/12/01 00:30:45;;;;;;;10.00;5.73;;;6.20;99.90;;;;;;4995870;28;20208;-45
2021/12/01 00:33:12;;;;;;;7.20;5.30;;;6.20;99.90;;;;;;5004129;28;20240;-45
2021/12/01 00:35:39;;;;;;;9.87;5.23;;;6.20;99.90;;;;;;5006429;28;20802;-45
2021/12/01 00:38:06;;;;;;;8.73;4.67;;;6.20;99.90;;;;;;4999694;28;20211;-45
2021/12/01 00:40:33;;;;;;;9.03;4.87;;;6.30;99.90;;;;;;4995662;28;20210;-45
2021/12/01 00:43:01;;;;;;;9.43;4.53;;;6.20;99.90;;;;;;5004861;28;20232;-45
2021/12/01 00:45:29;;;;;;;9.07;5.30;;;6.30;99.90;;;;;;4986021;28;20214;-45
2021/12/01 00:47:56;;;;;;;7.40;5.07;;;6.30;99.90;;;;;;5012939;28;20263;-45
2021/12/01 00:50:26;;;;;;;7.23;5.40;;;6.30;99.90;;;;;;4996759;28;20220;-44
2021/12/01 00:52:54;;;;;;;9.00;4.80;;;6.30;99.90;;;;;;5004505;28;20234;-45
2021/12/01 00:55:22;;;;;;;6.50;4.43;;;6.30;99.90;;;;;;4981741;28;21653;-45
2021/12/01 00:57:51;;;;;;;5.83;4.60;;;6.30;99.90;;;;;;4980078;28;20581;-45
2021/12/01 01:00:21;;;;;;;6.03;5.03;;;6.30;99.90;;;;;;4995305;28;20226;-45
2021/12/01 01:02:48;;;;;;;7.37;4.67;;;6.30;99.90;;;;;;5005616;28;20264;-45
2021/12/01 01:05:16;;;;;;;7.57;4.30;;;6.40;99.90;;;;;;4991745;28;20210;-45
2021/12/01 01:07:43;;;;;;;7.00;5.07;;;6.30;99.90;;;;;;4999953;28;20206;-45
2021/12/01 01:10:29;;;;;;;6.37;3.93;;;6.40;99.90;;;;;;4991470;28;20683;-45
2021/12/01 01:18:33;;;;;;;3.83;3.20;;;6.40;99.90;;;;;;5000201;28;20342;-45
2021/12/01 01:21:00;;;;;;;4.00;3.53;;;6.40;99.90;;;;;;5003272;28;20299;-44
2021/12/01 01:23:29;;;;;;;3.50;2.70;;;6.40;99.90;;;;;;5007017;28;20228;-46
2021/12/01 01:25:56;;;;;;;3.17;2.50;;;6.40;99.90;;;;;;4996769;28;21078;-44
2021/12/01 01:28:23;;;;;;;3.50;2.60;;;6.40;99.90;;;;;;4991600;28;20205;-45
2021/12/01 01:30:52;;;;;;;3.87;2.90;;;6.40;99.90;;;;;;5012359;28;20668;-45
2021/12/01 01:33:19;;;;;;;4.37;2.87;;;6.40;99.90;;;;;;4991122;28;20299;-45
2021/12/01 01:35:46;;;;;;;4.63;3.20;;;6.40;99.90;;;;;;4995729;28;20229;-45
2021/12/01 01:38:13;;;;;;;3.47;2.67;;;6.50;99.90;;;;;;5001499;28;20719;-45
2021/12/01 01:40:40;;;;;;;6.27;3.10;;;6.50;99.90;;;;;;4991235;28;20221;-45
2021/12/01 01:43:08;;;;;;;6.77;2.80;;;6.50;99.90;;;;;;5000883;28;20226;-44
2021/12/01 01:45:35;;;;;;;3.43;2.90;;;6.50;99.90;;;;;;4994748;28;20229;-45
2021/12/01 01:48:09;;;;;;;3.77;3.17;;;6.50;99.90;;;;;;4996054;28;20719;-44
2021/12/01 01:50:41;;;;;;;4.07;3.03;;;6.50;99.90;;;;;;4999503;28;20214;-45
2021/12/01 01:53:10;;;;;;;3.83;3.20;;;6.50;99.90;;;;;;4998953;28;20700;-45
2021/12/01 01:55:40;;;;;;;4.43;3.47;;;6.60;99.90;;;;;;5008211;28;20231;-45
2021/12/01 01:58:07;;;;;;;4.30;3.40;;;6.60;99.90;;;;;;4990039;28;20217;-45
2021/12/01 02:00:42;;;;;;;3.97;3.50;;;6.60;99.90;;;;;;4996733;28;20218;-45
2021/12/01 02:03:13;;;;;;;5.03;3.90;;;6.60;99.90;;;;;;4978667;28;20240;-45
2021/12/01 02:05:40;;;;;;;5.77;3.50;;;6.60;99.90;;;;;;5009208;28;20217;-45
2021/12/01 02:08:15;;;;;;;4.23;3.30;;;6.60;99.90;;;;;;4996900;28;20688;-45
2021/12/01 02:10:42;;;;;;;7.03;4.20;;;6.70;99.90;;;;;;4994150;28;20205;-44
2021/12/01 02:13:09;;;;;;;4.10;3.40;;;6.70;99.90;;;;;;4991794;28;20237;-45
2021/12/01 02:15:36;;;;;;;4.43;3.70;;;6.70;99.90;;;;;;4989974;28;20743;-45
2021/12/01 02:18:03;;;;;;;4.50;3.63;;;6.80;99.90;;;;;;4993798;28;20684;-45
2021/12/01 02:20:31;;;;;;;5.57;3.17;;;6.80;99.90;;;;;;5009422;28;20198;-45
2021/12/01 02:23:00;;;;;;;4.67;3.90;;;6.80;99.90;;;;;;4994445;28;20233;-45
2021/12/01 02:25:28;;;;;;;4.53;3.67;;;6.80;99.90;;;;;;5005466;28;21040;-46
2021/12/01 02:27:55;;;;;;;5.30;3.80;;;6.90;99.90;;;;;;5000969;28;20223;-44
2021/12/01 02:30:23;;;;;;;5.77;4.07;;;6.90;99.90;;;;;;4993242;28;20221;-45
2021/12/01 02:32:50;;;;;;;5.57;3.90;;;6.90;99.90;;;;;;4991315;28;20229;-45
2021/12/01 02:35:19;;;;;;;4.30;3.43;;;6.90;99.90;;;;;;4979145;28;20236;-45
2021/12/01 02:37:47;;;;;;;4.33;3.93;;;6.90;99.90;;;;;;4999755;28;20209;-45
2021/12/01 02:40:14;;;;;;;5.57;4.00;;;7.00;99.90;;;;;;5001395;28;20209;-45
2021/12/01 02:42:41;;;;;;;6.50;4.93;;;7.00;99.90;;;;;;5005346;28;20859;-45
2021/12/01 02:45:08;;;;;;;6.67;4.80;;;7.00;99.90;;;;;;4971521;28;21637;-45
2021/12/01 02:47:35;;;;;;;6.87;5.00;;;7.00;99.90;;;;;;4996714;28;20206;-45
2021/12/01 02:50:02;;;;;;;6.07;5.43;;;7.10;99.90;;;;;;4978816;28;20214;-45
2021/12/01 02:52:35;;;;;;;9.00;5.30;;;7.10;99.90;;;;;;4991029;28;20283;-45
2021/12/01 02:55:05;;;;;;;6.93;5.10;;;7.10;99.90;;;;;;4994342;28;20230;-45
2021/12/01 02:57:43;;;;;;;7.53;5.60;;;7.10;99.90;;;;;;5003929;28;20190;-45
2021/12/01 03:00:11;;;;;;;7.47;5.93;;;7.10;99.90;;;;;;4968726;28;20213;-45
2021/12/01 03:02:39;;;;;;;7.07;6.00;;;7.20;99.90;;;;;;4988136;28;20229;-45
2021/12/01 03:05:07;;;;;;;10.73;6.83;;;7.20;99.90;;;;;;4996909;28;20214;-46
2021/12/01 03:07:35;;;;;;;8.67;6.97;;;7.20;99.90;;;;;;4999095;28;20232;-45
2021/12/01 03:10:04;;;;;;;8.50;6.50;;;7.30;99.90;;;;;;4999606;28;20210;-45
2021/12/01 03:12:32;;;;;;;9.33;7.17;;;7.30;99.90;;;;;;4996824;28;20232;-45
2021/12/01 03:14:59;;;;;;;10.00;7.23;;;7.40;99.90;;;;;;4977649;28;20229;-45
2021/12/01 03:17:28;;;;;;;11.83;8.57;;;7.40;99.90;;;;;;5005611;28;20226;-45
2021/12/01 03:19:55;;;;;;;13.03;9.07;;;7.40;99.90;;;;;;4980868;28;20214;-45
2021/12/01 03:22:22;;;;;;;11.97;8.83;;;7.50;99.90;;;;;;5000058;28;20740;-44
2021/12/01 03:24:49;;;;;;;14.53;9.87;;;7.50;99.90;;;;;;4993579;28;20213;-46
2021/12/01 03:27:18;;;;;;;11.37;8.77;;;7.50;99.90;;;;;;4996606;28;20207;-47
2021/12/01 03:29:47;;;;;;;16.87;10.00;;;7.50;99.90;;;;;;4978575;28;20210;-48
2021/12/01 03:32:14;;;;;;;12.90;9.47;;;7.60;99.90;;;;;;5005093;28;20202;-48
2021/12/01 03:34:42;;;;;;;12.27;10.10;;;7.60;99.90;;;;;;4998286;28;20214;-47
2021/12/01 03:37:09;;;;;;;13.80;10.67;;;7.60;99.90;;;;;;4983478;28;20233;-47
2021/12/01 03:39:36;;;;;;;13.63;9.87;;;7.70;99.90;;;;;;4996941;28;20210;-47
2021/12/01 03:42:03;;;;;;;17.77;10.97;;;7.70;99.90;;;;;;5007236;28;20202;-47
2021/12/01 03:44:32;;;;;;;15.90;10.57;;;7.70;99.90;;;;;;4980917;28;20213;-47
2021/12/01 03:46:59;;;;;;;15.43;11.10;;;7.70;99.90;;;;;;4977097;28;20202;-56
2021/12/01 03:49:26;;;;;;;14.60;10.30;;;7.70;99.90;;;;;;5001058;28;20202;-47
2021/12/01 03:51:54;;;;;;;18.80;12.00;;;7.80;99.90;;;;;;5000008;28;20791;-47
2021/12/01 03:54:21;;;;;;;16.13;11.63;;;7.80;99.90;;;;;;5003219;28;20732;-47
2021/12/01 03:56:47;;;;;;;16.57;10.77;;;7.80;99.90;;;;;;4999293;28;20230;-47
2021/12/01 03:59:14;;;;;;;13.67;10.23;;;7.90;99.90;;;;;;4989040;28;20214;-47
2021/12/01 04:01:43;;;;;;;18.67;11.10;;;8.00;99.90;;;;;;4999857;28;20213;-47
2021/12/01 04:04:09;;;;;;;15.17;9.97;;;8.00;99.90;;;;;;4998726;28;20238;-48
2021/12/01 04:06:36;;;;;;;18.27;10.57;;;8.10;99.90;;;;;;4994080;28;20209;-48
2021/12/01 04:09:05;;;;;;;17.83;10.47;;;8.10;99.90;;;;;;5003690;28;20707;-47
2021/12/01 04:11:32;;;;;;;15.87;10.00;;;8.20;99.90;;;;;;4990354;28;20211;-48
2021/12/01 04:13:59;;;;;;;15.17;9.47;;;8.30;99.90;;;;;;4989220;28;20717;-47
2021/12/01 04:16:26;;;;;;;12.77;8.40;;;8.30;99.90;;;;;;4987165;28;20226;-47
2021/12/01 04:18:54;;;;;;;10.47;7.47;;;8.30;99.90;;;;;;4997943;28;20215;-51
2021/12/01 04:21:21;;;;;;;10.73;7.27;;;8.40;99.90;;;;;;4995172;28;20218;-47
2021/12/01 04:23:47;;;;;;;8.53;6.53;;;8.40;99.90;;;;;;5001062;28;20230;-48
2021/12/01 04:26:18;;;;;;;8.27;6.20;;;8.50;99.90;;;;;;5004121;28;20236;-47
2021/12/01 04:28:45;;;;;;;9.07;6.63;;;8.50;99.90;;;;;;5003003;28;20226;-47
2021/12/01 04:31:12;;;;;;;8.83;5.53;;;8.50;99.90;;;;;;4980772;28;20210;-48
2021/12/01 04:33:39;;;;;;;7.57;5.43;;;8.50;99.90;;;;;;4997326;28;20218;-47
2021/12/01 04:36:08;;;;;;;8.27;4.93;;;8.60;99.90;;;;;;4993395;28;20237;-48
2021/12/01 04:38:35;;;;;;;6.17;4.93;;;8.70;99.90;;;;;;4992895;28;20206;-47
2021/12/01 04:41:02;;;;;;;6.77;4.57;;;8.70;99.90;;;;;;4992938;28;20214;-47
2021/12/01 04:43:29;;;;;;;5.30;4.10;;;8.70;99.90;;;;;;4980741;28;20232;-47
2021/12/01 04:45:59;;;;;;;5.10;3.70;;;8.70;99.90;;;;;;5007901;28;20200;-47
2021/12/01 04:48:27;;;;;;;4.53;3.37;;;8.70;99.90;;;;;;4996643;28;21120;-47
2021/12/01 04:50:55;;;;;;;3.90;2.97;;;8.70;99.90;;;;;;5002021;28;20216;-48
2021/12/01 04:53:25;;;;;;;3.30;2.70;;;8.80;99.90;;;;;;4973782;28;20228;-48
2021/12/01 04:55:52;;;;;;;3.43;2.40;;;8.80;99.90;;;;;;5002085;28;20210;-47
2021/12/01 04:58:19;;;;;;;2.13;1.97;;;8.70;99.90;;;;;;4988684;28;20245;-47
2021/12/01 05:00:47;;;;;;;2.40;2.07;;;8.80;99.90;;;;;;4989360;28;20209;-48
2021/12/01 05:03:14;;;;;;;2.10;1.90;;;8.80;99.90;;;;;;4970437;28;20724;-48
2021/12/01 05:05:40;;;;;;;2.70;1.70;;;8.80;99.90;;;;;;4995566;28;20848;-48
2021/12/01 05:08:07;;;;;;;1.90;1.50;;;8.80;99.90;;;;;;4987619;28;20213;-47
2021/12/01 05:10:36;;;;;;;3.17;1.20;;;8.80;99.90;;;;;;4996784;28;20688;-47
2021/12/01 05:13:03;;;;;;;2.53;1.57;;;8.80;99.90;;;;;;4999119;28;21055;-48
2021/12/01 05:15:29;;;;;;;1.23;1.13;;;8.80;99.90;;;;;;4979003;28;20946;-48
2021/12/01 05:17:56;;;;;;;1.93;1.40;;;8.90;99.90;;;;;;4978269;28;20234;-47
2021/12/01 05:20:23;;;;;;;1.30;1.20;;;8.90;99.90;;;;;;4981374;28;20827;-47
2021/12/01 05:22:50;;;;;;;1.20;1.10;;;8.80;99.90;;;;;;4999502;28;20986;-47
2021/12/01 05:25:17;;;;;;;1.33;1.23;;;8.80;99.90;;;;;;4991091;28;20211;-47
2021/12/01 05:27:46;;;;;;;1.93;1.50;;;8.80;99.90;;;;;;4987571;28;20591;-47
2021/12/01 05:30:13;;;;;;;1.70;1.40;;;8.80;99.90;;;;;;4973546;28;20209;-48
2021/12/01 05:32:40;;;;;;;1.30;1.20;;;8.80;99.90;;;;;;4966654;28;20221;-47
2021/12/01 05:35:08;;;;;;;4.37;1.30;;;8.80;99.90;;;;;;4986211;28;21056;-48
2021/12/01 05:37:35;;;;;;;1.20;1.10;;;8.90;99.90;;;;;;4988241;28;20222;-47
2021/12/01 05:40:02;;;;;;;1.63;1.50;;;8.80;99.90;;;;;;4993246;28;20214;-47
2021/12/01 05:42:30;;;;;;;1.30;1.20;;;8.80;99.90;;;;;;4979233;28;20225;-47
2021/12/01 05:44:58;;;;;;;1.30;1.17;;;8.80;99.90;;;;;;4993321;28;20680;-48
2021/12/01 05:47:25;;;;;;;2.73;1.43;;;8.80;99.90;;;;;;4999737;28;20210;-48
2021/12/01 05:49:52;;;;;;;1.60;1.40;;;8.90;99.90;;;;;;4967202;28;20762;-48
2021/12/01 05:52:18;;;;;;;1.37;1.27;;;8.80;99.90;;;;;;5000878;28;20218;-48
2021/12/01 05:54:50;;;;;;;1.50;1.40;;;8.90;99.90;;;;;;4977751;28;20312;-47
2021/12/01 05:57:17;;;;;;;1.53;1.43;;;8.80;99.90;;;;;;4971542;28;20231;-48
2021/12/01 05:59:44;;;;;;;1.90;1.63;;;8.90;99.90;;;;;;4981058;28;20210;-48
2021/12/01 06:02:12;;;;;;;1.80;1.60;;;8.90;99.90;;;;;;4970547;28;20202;-48
2021/12/01 06:04:39;;;;;;;1.90;1.70;;;8.90;99.90;;;;;;4978809;28;20214;-48
2021/12/01 06:07:06;;;;;;;4.30;1.73;;;8.90;99.90;;;;;;4966751;28;20207;-48
2021/12/01 06:09:33;;;;;;;1.93;1.63;;;8.90;99.90;;;;;;4988486;28;20213;-48
2021/12/01 06:12:00;;;;;;;2.10;1.90;;;8.80;99.90;;;;;;4981702;28;20210;-48
2021/12/01 06:14:27;;;;;;;2.83;1.83;;;8.80;99.90;;;;;;4973743;28;20241;-48
2021/12/01 06:16:54;;;;;;;1.93;1.70;;;8.80;99.90;;;;;;4978749;28;20911;-48
2021/12/01 06:19:22;;;;;;;1.60;1.50;;;8.90;99.90;;;;;;5001250;28;20209;-48
2021/12/01 06:21:49;;;;;;;4.27;1.80;;;8.90;99.90;;;;;;4974739;28;21320;-47
2021/12/01 06:24:16;;;;;;;2.57;1.97;;;8.80;99.90;;;;;;4983297;28;21485;-48
2021/12/01 06:26:43;;;;;;;2.00;1.80;;;8.90;99.90;;;;;;4977045;28;20210;-48
2021/12/01 06:29:10;;;;;;;2.17;1.97;;;8.80;99.90;;;;;;4988085;28;20241;-47
2021/12/01 06:31:37;;;;;;;2.37;2.17;;;8.80;99.90;;;;;;5007462;28;20207;-48
2021/12/01 06:34:04;;;;;;;2.10;1.90;;;8.80;99.90;;;;;;4992107;28;20249;-48
2021/12/01 06:36:32;;;;;;;2.37;2.17;;;8.80;99.90;;;;;;4992495;28;20237;-48
2021/12/01 06:38:59;;;;;;;3.27;1.90;;;8.80;99.90;;;;;;5000992;28;20202;-48
2021/12/01 06:41:25;;;;;;;2.23;1.80;;;8.80;99.90;;;;;;4991944;28;20845;-47
2021/12/01 06:43:54;;;;;;;2.33;1.70;;;8.70;99.90;;;;;;4988964;28;20250;-48
2021/12/01 06:46:20;;;;;;;2.00;1.80;;;8.70;99.90;;;;;;4993038;28;20210;-47
2021/12/01 06:48:47;;;;;;;3.70;1.87;;;8.70;99.90;;;;;;4999483;28;20210;-46
2021/12/01 06:51:14;;;;;;;1.60;1.50;;;8.80;99.90;;;;;;4977132;28;20210;-47
2021/12/01 06:53:42;;;;;;;1.93;1.73;;;8.70;99.90;;;;;;5002489;28;20241;-47
2021/12/01 06:56:09;;;;;;;1.90;1.60;;;8.70;99.90;;;;;;4994024;28;20209;-46
2021/12/01 06:58:36;;;;;;;1.77;1.50;;;8.70;99.90;;;;;;4999538;28;20233;-47
2021/12/01 07:01:04;;;;;;;1.93;1.73;;;8.70;99.90;;;;;;5001027;28;20213;-47
2021/12/01 07:03:32;;;;;;;1.73;1.63;;;8.70;99.90;;;;;;4997429;28;20225;-46
2021/12/01 07:05:58;;;;;;;1.90;1.70;;;8.70;99.90;;;;;;4975471;28;20855;-47
2021/12/01 07:08:26;;;;;;;1.40;1.30;;;8.70;99.90;;;;;;5003667;28;20740;-47
2021/12/01 07:10:54;;;;;;;3.17;1.87;;;8.70;99.90;;;;;;5006566;28;20195;-47
2021/12/01 07:13:21;;;;;;;1.63;1.53;;;8.70;99.90;;;;;;5004494;28;20230;-47
2021/12/01 07:15:49;;;;;;;4.43;1.50;;;8.60;99.90;;;;;;4985718;28;20213;-47
2021/12/01 07:18:15;;;;;;;1.77;1.67;;;8.70;99.90;;;;;;4995463;28;20233;-47
2021/12/01 07:20:45;;;;;;;1.60;1.50;;;8.60;99.90;;;;;;4978506;28;20729;-47
2021/12/01 07:23:12;;;;;;;1.73;1.63;;;8.60;99.90;;;;;;4978560;28;20244;-47
2021/12/01 07:25:39;;;;;;;2.23;1.90;;;8.60;99.90;;;;;;5005171;28;20190;-47
2021/12/01 07:28:07;;;;;;;2.57;1.90;;;8.70;99.90;;;;;;5007259;28;20213;-47
2021/12/01 07:30:35;;;;;;;1.73;1.63;;;8.60;99.90;;;;;;4999651;28;20224;-46
2021/12/01 07:33:02;;;;;;;2.03;1.63;;;8.60;99.90;;;;;;5010397;28;20228;-47
2021/12/01 07:35:28;;;;;;;1.80;1.70;;;8.60;99.90;;;;;;5004793;28;20204;-46
2021/12/01 07:37:56;;;;;;;2.60;1.63;;;8.60;99.90;;;;;;4990569;28;20238;-47
2021/12/01 07:40:23;;;;;;;1.90;1.70;;;8.60;99.90;;;;;;5006612;28;20202;-46
2021/12/01 07:42:51;;;;;;;2.13;1.93;;;8.50;99.90;;;;;;5007426;28;20222;-47
2021/12/01 07:45:19;;;;;;;2.63;2.03;;;8.60;99.90;;;;;;5002776;28;20689;-46
2021/12/01 07:47:46;;;;;;;2.43;2.23;;;8.60;99.90;;;;;;5001872;28;20207;-47
2021/12/01 07:50:13;;;;;;;1.97;1.87;;;8.60;99.90;;;;;;5007868;28;20695;-47
2021/12/01 07:52:40;;;;;;;1.77;1.63;;;8.60;99.90;;;;;;4986559;28;20240;-47
2021/12/01 07:55:08;;;;;;;2.27;2.07;;;8.60;99.90;;;;;;5000386;28;20221;-47
2021/12/01 07:57:35;;;;;;;1.90;1.80;;;8.50;99.90;;;;;;5009673;28;20222;-47
2021/12/01 08:00:02;;;;;;;2.20;2.00;;;8.50;99.90;;;;;;4999216;28;20214;-46
2021/12/01 08:02:30;;;;;;;2.10;1.90;;;8.50;99.90;;;;;;5005424;28;20242;-47
2021/12/01 08:04:57;;;;;;;2.43;2.10;;;8.50;99.90;;;;;;4995252;28;20207;-47
2021/12/01 08:07:25;;;;;;;2.80;2.30;;;8.50;99.90;;;;;;4994003;28;21462;-47
2021/12/01 08:09:51;;;;;;;3.50;1.97;;;8.50;99.90;;;;;;4982973;28;20221;-47
2021/12/01 08:12:18;;;;;;;2.13;1.93;;;8.50;99.90;;;;;;5010558;28;20305;-47
2021/12/01 08:14:45;;;;;;;4.43;2.17;;;8.50;99.90;;;;;;4998995;28;20206;-47
2021/12/01 08:17:12;;;;;;;2.60;2.40;;;8.50;99.90;;;;;;5005836;28;20288;-46
2021/12/01 08:19:40;;;;;;;2.43;2.23;;;8.50;99.90;;;;;;5002241;28;20210;-46
2021/12/01 08:22:09;;;;;;;2.97;2.03;;;8.50;99.90;;;;;;5006193;28;20232;-47
2021/12/01 08:24:36;;;;;;;3.07;1.83;;;8.60;99.90;;;;;;4990991;28;20297;-47
2021/12/01 08:27:03;;;;;;;1.93;1.80;;;8.50;99.90;;;;;;4984986;28;20215;-47
2021/12/01 08:29:30;;;;;;;2.23;2.03;;;8.50;99.90;;;;;;5008284;28;20602;-46
2021/12/01 08:31:59;;;;;;;3.33;2.10;;;8.50;99.90;;;;;;5000857;28;20230;-47
2021/12/01 08:34:26;;;;;;;2.10;1.90;;;8.50;99.90;;;;;;5004992;28;20591;-47
2021/12/01 08:36:54;;;;;;;4.33;2.00;;;8.50;99.90;;;;;;5011746;28;20203;-47
2021/12/01 08:39:21;;;;;;;3.07;2.17;;;8.50;99.90;;;;;;4998174;28;20442;-47
2021/12/01 08:41:47;;;;;;;2.30;2.10;;;8.50;99.90;;;;;;5009256;28;20930;-47
2021/12/01 08:44:14;;;;;;;2.30;2.10;;;8.50;99.90;;;;;;5006448;28;21447;-47
2021/12/01 08:46:41;;;;;;;2.13;1.93;;;8.50;99.90;;;;;;5005004;28;20210;-47
2021/12/01 08:49:08;;;;;;;1.97;1.83;;;8.60;99.90;;;;;;5005472;28;20209;-47
2021/12/01 08:51:35;;;;;;;2.10;1.90;;;8.60;99.90;;;;;;5010027;28;20202;-46
2021/12/01 08:54:04;;;;;;;2.10;1.90;;;8.60;99.90;;;;;;4996233;28;20291;-47
2021/12/01 08:56:31;;;;;;;1.80;1.70;;;8.60;99.90;;;;;;5002485;28;20264;-47
2021/12/01 08:58:58;;;;;;;2.27;2.07;;;8.60;99.90;;;;;;4997392;28;23531;-47
2021/12/01 09:01:25;;;;;;;3.73;1.70;;;8.60;99.90;;;;;;5009482;28;20203;-47
2021/12/01 09:03:51;;;;;;;1.90;1.70;;;8.60;99.90;;;;;;5004742;28;21045;-47
2021/12/01 09:06:18;;;;;;;1.90;1.70;;;8.60;99.90;;;;;;5001247;28;20590;-47
2021/12/01 09:08:45;;;;;;;1.73;1.63;;;8.70;99.90;;;;;;5004001;28;20218;-46
2021/12/01 09:11:13;;;;;;;1.70;1.60;;;8.70;99.90;;;;;;4989068;28;20264;-46
2021/12/01 09:13:40;;;;;;;1.70;1.60;;;8.70;99.90;;;;;;5012570;28;20602;-46
2021/12/01 09:16:07;;;;;;;1.80;1.70;;;8.60;99.90;;;;;;5004343;28;20214;-47
2021/12/01 09:18:34;;;;;;;1.43;1.33;;;8.60;99.90;;;;;;5010598;28;20226;-46
2021/12/01 09:21:02;;;;;;;1.97;1.77;;;8.60;99.90;;;;;;5004224;28;20284;-46
2021/12/01 09:23:29;;;;;;;2.87;1.57;;;8.60;99.90;;;;;;5010950;28;20224;-45
2021/12/01 09:25:56;;;;;;;2.40;1.87;;;8.60;99.90;;;;;;4992392;28;20214;-46
2021/12/01 09:28:26;;;;;;;1.50;1.33;;;8.70;99.90;;;;;;5004530;28;20214;-46
2021/12/01 09:30:54;;;;;;;1.50;1.40;;;8.70;99.90;;;;;;5005749;28;20206;-47
2021/12/01 09:33:22;;;;;;;1.80;1.70;;;9.00;99.90;;;;;;5002333;28;20230;-47
2021/12/01 09:35:51;;;;;;;1.50;1.40;;;9.50;99.90;;;;;;5006618;28;20206;-46
2021/12/01 09:38:18;;;;;;;2.10;1.50;;;9.20;99.90;;;;;;5011383;28;20288;-47
2021/12/01 09:40:48;;;;;;;2.00;1.23;;;9.10;99.90;;;;;;4989072;28;20594;-46
2021/12/01 09:43:16;;;;;;;1.60;1.40;;;9.00;99.90;;;;;;5004280;28;20579;-47
2021/12/01 09:45:45;;;;;;;1.50;1.40;;;8.90;99.90;;;;;;5005387;28;20218;-46
2021/12/01 09:48:12;;;;;;;2.00;1.57;;;8.90;99.90;;;;;;5006616;28;20202;-47
2021/12/01 09:50:39;;;;;;;1.43;1.33;;;8.90;99.90;;;;;;4999529;28;20210;-47
2021/12/01 09:53:07;;;;;;;1.20;1.10;;;8.90;99.90;;;;;;4985856;28;20223;-46
2021/12/01 09:55:35;;;;;;;1.33;1.23;;;8.90;99.90;;;;;;4999135;28;20198;-47
2021/12/01 09:58:05;;;;;;;1.10;1.10;;;8.90;99.90;;;;;;4986612;28;20225;-47
2021/12/01 10:00:32;;;;;;;1.57;1.40;;;8.80;99.90;;;;;;5004511;28;20198;-47
2021/12/01 10:03:01;;;;;;;1.40;1.30;;;8.80;99.90;;;;;;5003815;28;20230;-47
2021/12/01 10:05:53;;;;;;;2.80;1.30;;;8.80;99.90;;;;;;5005535;28;20209;-47
2021/12/01 10:08:24;;;;;;;1.83;1.60;;;8.90;99.90;;;;;;5003912;28;20230;-47
2021/12/01 10:10:52;;;;;;;1.60;1.50;;;8.90;99.90;;;;;;5007492;28;20693;-47
2021/12/01 10:13:28;;;;;;;2.37;2.10;;;8.90;99.90;;;;;;4985878;28;20252;-46
2021/12/01 10:15:57;;;;;;;2.50;1.90;;;8.90;99.90;;;;;;4998621;28;20967;-47
2021/12/01 10:18:26;;;;;;;2.60;1.63;;;8.90;99.90;;;;;;5003131;28;20229;-47
2021/12/01 10:21:06;;;;;;;2.83;2.57;;;8.90;99.90;;;;;;5005658;28;20225;-46
2021/12/01 10:23:35;;;;;;;3.50;3.13;;;8.90;99.90;;;;;;4998958;28;20716;-46
2021/12/01 10:26:14;;;;;;;3.80;2.80;;;8.90;99.90;;;;;;5004563;28;20303;-46
2021/12/01 10:28:43;;;;;;;2.43;2.10;;;9.00;99.90;;;;;;4986868;28;20210;-46
2021/12/01 10:31:11;;;;;;;2.17;2.03;;;9.00;99.90;;;;;;5003930;28;20202;-47
2021/12/01 10:33:40;;;;;;;2.00;1.90;;;9.00;99.90;;;;;;5000944;28;20234;-46
2021/12/01 10:36:08;;;;;;;1.57;1.43;;;9.10;99.90;;;;;;5008616;28;20198;-47
2021/12/01 10:38:38;;;;;;;1.93;1.50;;;9.00;99.90;;;;;;5003689;28;20233;-46
2021/12/01 10:41:08;;;;;;;2.80;1.50;;;9.00;99.90;;;;;;5004554;28;20198;-46
2021/12/01 10:43:38;;;;;;;1.77;1.50;;;9.00;99.90;;;;;;4995708;28;20234;-46
2021/12/01 10:46:10;;;;;;;1.70;1.60;;;9.10;99.90;;;;;;5006592;28;20434;-47
2021/12/01 10:48:40;;;;;;;2.50;1.43;;;9.10;99.90;;;;;;4997510;28;20647;-47
2021/12/01 10:51:09;;;;;;;4.67;1.67;;;9.10;99.90;;;;;;5005610;28;20325;-47
2021/12/01 10:53:36;;;;;;;1.70;1.60;;;9.00;99.90;;;;;;5004558;28;20237;-46
2021/12/01 10:56:07;;;;;;;1.80;1.50;;;9.00;99.90;;;;;;5007283;28;20198;-46
2021/12/01 10:58:36;;;;;;;1.73;1.60;;;9.00;99.90;;;;;;5012584;28;20248;-47
2021/12/01 11:01:05;;;;;;;1.93;1.50;;;9.00;99.90;;;;;;4996565;28;20210;-47
2021/12/01 11:03:32;;;;;;;4.10;1.43;;;9.10;99.90;;;;;;5002113;28;20505;-47
2021/12/01 11:06:11;;;;;;;1.30;1.20;;;9.00;99.90;;;;;;5003825;28;20202;-47
2021/12/01 11:08:39;;;;;;;2.07;1.43;;;9.10;99.90;;;;;;4999196;28;20213;-46
2021/12/01 11:11:08;;;;;;;2.17;1.33;;;9.10;99.90;;;;;;5007504;28;20991;-47
2021/12/01 11:13:36;;;;;;;1.87;1.13;;;9.10;99.90;;;;;;5011769;28;20475;-47
2021/12/01 11:16:06;;;;;;;3.90;1.23;;;9.20;99.90;;;;;;4995315;28;20199;-47
2021/12/01 11:18:35;;;;;;;2.57;1.20;;;9.20;99.90;;;;;;5008403;28;20594;-47
2021/12/01 11:21:07;;;;;;;3.23;1.20;;;9.20;99.90;;;;;;5004516;28;20945;-45
2021/12/01 11:23:35;;;;;;;2.37;0.93;;;9.20;99.90;;;;;;5004244;28;20399;-46
2021/12/01 11:26:05;;;;;;;3.43;1.30;;;9.20;99.90;;;;;;5001588;28;20217;-46
2021/12/01 11:28:34;;;;;;;3.80;1.20;;;9.20;99.90;;;;;;4989210;28;20416;-47
2021/12/01 11:31:02;;;;;;;2.10;1.03;;;9.20;99.90;;;;;;4996581;28;20592;-47
2021/12/01 11:33:31;;;;;;;2.40;0.93;;;9.20;99.90;;;;;;5000220;28;20974;-47
2021/12/01 11:36:01;;;;;;;1.60;0.97;;;9.20;99.90;;;;;;5010066;28;20206;-47
2021/12/01 11:38:29;;;;;;;1.37;0.60;;;9.20;99.90;;;;;;4996843;28;20236;-47
2021/12/01 11:40:57;;;;;;;2.50;1.20;;;9.20;99.90;;;;;;5001726;28;20684;-47
2021/12/01 11:43:27;;;;;;;3.03;1.13;;;9.10;99.90;;;;;;4991044;28;20241;-47
2021/12/01 11:45:54;;;;;;;2.63;1.07;;;9.10;99.90;;;;;;4994560;28;20218;-47
2021/12/01 11:48:25;;;;;;;3.43;1.17;;;9.10;99.90;;;;;;4991665;28;20211;-47
2021/12/01 11:51:00;;;;;;;1.77;1.07;;;9.10;99.90;;;;;;4999406;28;20206;-47
2021/12/01 11:53:34;;;;;;;4.30;1.23;;;9.10;99.90;;;;;;5000884;28;20225;-46
2021/12/01 11:56:04;;;;;;;2.73;1.00;;;9.10;99.90;;;;;;5002222;28;20206;-47
2021/12/01 11:59:02;;;;;;;3.53;1.20;;;9.10;99.90;;;;;;5004313;28;20229;-47
2021/12/01 12:01:52;;;;;;;4.10;1.10;;;9.10;99.90;;;;;;4990276;28;20248;-47
2021/12/01 12:04:49;;;;;;;5.03;1.20;;;9.10;99.90;;;;;;5009966;28;20226;-47
2021/12/01 12:07:22;;;;;;;3.80;1.30;;;9.00;99.90;;;;;;5003185;28;20309;-47
2021/12/01 12:10:22;;;;;;;1.00;0.80;;;9.00;99.90;;;;;;5010501;28;20234;-46
2021/12/01 12:12:57;;;;;;;4.63;0.97;;;9.00;99.90;;;;;;4971848;28;20231;-47
2021/12/01 12:15:47;;;;;;;3.50;1.20;;;9.00;99.90;;;;;;4999341;28;20210;-47
2021/12/01 12:18:30;;;;;;;2.60;0.90;;;9.00;99.90;;;;;;4995042;28;20225;-47
2021/12/01 12:21:12;;;;;;;5.20;1.00;;;9.00;99.90;;;;;;5002218;28;20202;-45
2021/12/01 12:23:39;;;;;;;3.50;0.93;;;9.00;99.90;;;;;;4989471;28;20226;-46
2021/12/01 12:26:10;;;;;;;3.57;0.80;;;9.00;99.90;;;;;;4997658;28;20990;-47
2021/12/01 12:28:40;;;;;;;3.03;0.83;;;9.00;99.90;;;;;;5010827;28;20293;-46
2021/12/01 12:31:24;;;;;;;3.50;0.90;;;9.10;99.90;;;;;;5001934;28;20206;-47
2021/12/01 12:33:53;;;;;;;5.30;1.37;;;9.10;99.90;;;;;;4989216;28;20253;-46
2021/12/01 12:36:36;;;;;;;6.60;1.33;;;9.10;99.90;;;;;;5007244;28;20974;-47
2021/12/01 12:39:05;;;;;;;2.17;1.33;;;9.10;99.90;;;;;;5001040;28;20394;-47
2021/12/01 12:42:10;;;;;;;5.30;1.17;;;9.10;99.90;;;;;;5005445;28;20210;-46
2021/12/01 12:44:40;;;;;;;6.17;0.90;;;9.10;99.90;;;;;;4997391;28;20288;-45
2021/12/01 12:47:09;;;;;;;2.63;0.97;;;9.00;99.90;;;;;;4984765;28;20989;-46
2021/12/01 12:49:41;;;;;;;7.27;0.90;;;9.00;99.90;;;;;;5012796;28;20665;-46
2021/12/01 12:52:34;;;;;;;2.07;0.90;;;9.10;99.90;;;;;;4960029;28;20214;-48
2021/12/01 12:55:05;;;;;;;2.70;0.73;;;9.10;99.90;;;;;;4993743;28;20214;-46
2021/12/01 12:57:53;;;;;;;7.97;1.50;;;9.10;99.90;;;;;;4984410;28;20317;-46
2021/12/01 13:00:24;;;;;;;2.70;0.90;;;9.10;99.90;;;;;;5004088;28;20727;-46
2021/12/01 13:02:51;;;;;;;1.43;0.90;;;9.20;99.90;;;;;;4958032;28;20226;-46
2021/12/01 13:05:34;;;;;;;5.47;1.30;;;9.10;99.90;;;;;;5001559;28;20206;-46
2021/12/01 13:08:01;;;;;;;5.40;1.30;;;9.20;99.90;;;;;;4994309;28;20209;-47
2021/12/01 13:10:31;;;;;;;9.00;1.10;;;9.10;99.90;;;;;;4988573;28;20285;-46